EGLL/LHR METAR and TAF weather

Enter ICAO airport designator
Station Type Date Time Source
EGLL METAR 2019/05/25 14:50 UTC NOAA

EGLL 251450Z AUTO 30007KT 270V340 9999 NCD 23/08 Q1017 NOSIG


Station Type Date Time Source
EGLL Decoded METAR 2019/05/25 14:50 UTC NOAA

London / Heathrow Airport, United Kingdom (EGLL) 51-29N 000-27W 0M
May 25, 2019 - 10:50 AM EDT / 2019.05.25 1450 UTC
Wind: from the WNW (300 degrees) at 8 MPH (7 KT) (direction variable):0
Visibility: greater than 7 mile(s):0
Temperature: 73 F (23 C)
Dew Point: 46 F (8 C)
Relative Humidity: 38%
Pressure (altimeter): 30.03 in. Hg (1017 hPa)
ob: EGLL 251450Z AUTO 30007KT 270V340 9999 NCD 23/08 Q1017 NOSIG
cycle: 15

Station Type Date Time Source
EGLL TAF 2019/05/25 12:09 UTC NOAA

TAF EGLL 251056Z 2512/2618 27010KT 9999 SCT035 PROB30
TEMPO 2604/2608 BKN010
TEMPO 2608/2618 8000 -RA PROB30
TEMPO 2608/2612 4000 RADZ BKN012

Example: see airport list